createdAt,value
2023-01-09T00:08:16.740Z,7.7
2023-01-09T00:18:18.136Z,7.6
2023-01-09T00:28:19.987Z,7.6
2023-01-09T00:38:21.742Z,7.5
2023-01-09T00:58:24.871Z,7.3
2023-01-09T01:08:26.855Z,7.1
2023-01-09T01:18:28.476Z,7
2023-01-09T01:28:30.404Z,6.9
2023-01-09T01:38:31.903Z,6.8
2023-01-09T01:48:33.535Z,6.8
2023-01-09T01:58:35.534Z,6.8
2023-01-09T02:08:36.769Z,6.8
2023-01-09T02:21:16.694Z,6.7
2023-01-09T02:28:49.208Z,6.7
2023-01-09T02:38:50.978Z,6.6
2023-01-09T02:48:52.760Z,6.6
2023-01-09T02:58:54.081Z,6.5
2023-01-09T03:08:55.288Z,6.3
2023-01-09T03:18:57.120Z,6.3
2023-01-09T03:38:59.961Z,6.4
2023-01-09T03:49:01.684Z,6.4
2023-01-09T04:09:04.597Z,6.5
2023-01-09T04:19:05.782Z,6.5
2023-01-09T04:29:07.611Z,6.4
2023-01-09T04:39:09.426Z,6.4
2023-01-09T04:49:11.025Z,6.4
2023-01-09T04:59:12.570Z,6.2
2023-01-09T05:09:14.236Z,6.1
2023-01-09T05:19:15.476Z,6
2023-01-09T05:29:16.628Z,5.9
2023-01-09T05:49:20.167Z,5.8
2023-01-09T05:59:21.870Z,5.9
2023-01-09T06:09:23.231Z,6
2023-01-09T06:19:24.510Z,6.1
2023-01-09T06:29:26.213Z,6.2
2023-01-09T06:39:27.644Z,6.3
2023-01-09T06:49:28.704Z,6.2
2023-01-09T06:59:30.118Z,5.9
2023-01-09T07:09:32.069Z,5.8
2023-01-09T07:19:33.474Z,5.7
2023-01-09T07:29:34.623Z,5.9
2023-01-09T07:39:36.005Z,6
2023-01-09T07:49:37.012Z,6.2
2023-01-09T07:59:38.083Z,6.3
2023-01-09T08:09:39.218Z,6.3
2023-01-09T08:19:40.339Z,6.4
2023-01-09T08:29:42.082Z,6.5
2023-01-09T08:39:43.483Z,6.6
2023-01-09T08:49:45.251Z,6.5
2023-01-09T08:59:46.788Z,6.4
2023-01-09T09:39:53.353Z,6.3
2023-01-09T09:49:54.603Z,6.3
2023-01-09T10:09:58.461Z,6.6
2023-01-09T10:30:01.553Z,7
2023-01-09T11:10:08.251Z,7.5
2023-01-09T11:20:09.386Z,7.3
2023-01-09T11:50:13.706Z,7.3
2023-01-09T12:00:15.516Z,7.3
2023-01-09T12:10:16.885Z,7.4
2023-01-09T12:50:21.616Z,7.3
2023-01-09T13:00:23.175Z,6.8
2023-01-09T13:40:30.389Z,6.9
2023-01-09T13:50:31.740Z,7
2023-01-09T14:30:37.522Z,6.9
2023-01-09T14:40:38.937Z,7
2023-01-09T14:50:40.608Z,6.9
2023-01-09T15:00:42.028Z,6.6
2023-01-09T15:10:43.077Z,6.4
2023-01-09T15:20:44.689Z,6.3
2023-01-09T15:30:46.202Z,6.1
2023-01-09T15:40:47.791Z,6.1
2023-01-09T15:50:49.427Z,6.1
2023-01-09T16:00:51.055Z,6.1
2023-01-09T16:10:52.133Z,6.1
2023-01-09T16:40:56.868Z,6
2023-01-09T16:50:58.209Z,5.9
2023-01-09T17:01:00.298Z,6
2023-01-09T17:11:02.140Z,6
2023-01-09T17:21:03.464Z,6.1
2023-01-09T17:31:04.878Z,6.1
2023-01-09T17:41:06.909Z,6
2023-01-09T17:51:08.745Z,6
2023-01-09T18:01:09.860Z,5.9
2023-01-09T18:11:10.901Z,5.8
2023-01-09T18:21:12.039Z,5.7
2023-01-09T19:01:18.047Z,5.2
2023-01-09T19:21:21.229Z,5.4
2023-01-09T19:31:22.848Z,5.4
2023-01-09T19:41:24.551Z,5.4
2023-01-09T20:01:27.379Z,5.5
2023-01-09T20:21:29.760Z,5.6
2023-01-09T20:31:31.687Z,5.6
2023-01-09T20:41:32.767Z,5.7
2023-01-09T20:51:34.161Z,5.8
2023-01-09T21:11:36.382Z,5.8
2023-01-09T21:21:37.682Z,5.8
2023-01-09T21:41:41.512Z,5.6
2023-01-09T21:51:43.204Z,5.6
2023-01-09T22:11:46.441Z,5.5
2023-01-09T22:21:47.619Z,5.5
2023-01-09T23:01:53.750Z,5.5
2023-01-09T23:11:54.725Z,5.5
2023-01-09T23:21:56.198Z,5.4
2023-01-09T23:31:57.831Z,5.3
2023-01-09T23:41:59.277Z,5.3
2023-01-09T23:52:00.861Z,5.4
